sensor_id;sensor_type;location;lat;lon;timestamp;temperature;humidity
25440;DHT22;13365;52.208;5.488;2023-06-19T00:01:46;28.10;55.40
25440;DHT22;13365;52.208;5.488;2023-06-19T00:04:12;28.10;55.50
25440;DHT22;13365;52.208;5.488;2023-06-19T00:06:37;28.10;55.20
25440;DHT22;13365;52.208;5.488;2023-06-19T00:09:03;28.10;55.50
25440;DHT22;13365;52.208;5.488;2023-06-19T00:11:29;28.00;55.60
25440;DHT22;13365;52.208;5.488;2023-06-19T00:13:58;28.10;55.60
25440;DHT22;13365;52.208;5.488;2023-06-19T00:16:24;28.10;55.80
25440;DHT22;13365;52.208;5.488;2023-06-19T00:18:51;28.00;55.80
25440;DHT22;13365;52.208;5.488;2023-06-19T00:21:24;28.10;55.80
25440;DHT22;13365;52.208;5.488;2023-06-19T00:23:52;28.00;55.80
25440;DHT22;13365;52.208;5.488;2023-06-19T00:26:18;28.00;56.40
25440;DHT22;13365;52.208;5.488;2023-06-19T00:28:48;28.00;55.90
25440;DHT22;13365;52.208;5.488;2023-06-19T00:31:14;28.00;56.00
25440;DHT22;13365;52.208;5.488;2023-06-19T00:33:40;28.10;56.00
25440;DHT22;13365;52.208;5.488;2023-06-19T00:36:14;28.00;56.10
25440;DHT22;13365;52.208;5.488;2023-06-19T00:38:40;28.00;56.40
25440;DHT22;13365;52.208;5.488;2023-06-19T00:41:06;28.00;56.60
25440;DHT22;13365;52.208;5.488;2023-06-19T00:43:32;27.90;56.80
25440;DHT22;13365;52.208;5.488;2023-06-19T00:45:58;27.90;57.40
25440;DHT22;13365;52.208;5.488;2023-06-19T00:48:24;27.90;57.40
25440;DHT22;13365;52.208;5.488;2023-06-19T00:50:50;27.90;57.60
25440;DHT22;13365;52.208;5.488;2023-06-19T00:53:17;27.90;57.70
25440;DHT22;13365;52.208;5.488;2023-06-19T00:55:45;27.80;58.20
25440;DHT22;13365;52.208;5.488;2023-06-19T00:58:11;27.60;58.40
25440;DHT22;13365;52.208;5.488;2023-06-19T01:00:37;27.70;58.70
25440;DHT22;13365;52.208;5.488;2023-06-19T01:03:02;27.70;58.90
25440;DHT22;13365;52.208;5.488;2023-06-19T01:05:29;27.60;58.80
25440;DHT22;13365;52.208;5.488;2023-06-19T01:08:44;27.50;59.20
25440;DHT22;13365;52.208;5.488;2023-06-19T01:10:49;27.50;59.50
25440;DHT22;13365;52.208;5.488;2023-06-19T01:13:25;27.50;59.50
25440;DHT22;13365;52.208;5.488;2023-06-19T01:15:52;27.40;59.80
25440;DHT22;13365;52.208;5.488;2023-06-19T01:18:19;27.40;60.40
25440;DHT22;13365;52.208;5.488;2023-06-19T01:20:44;27.20;60.60
25440;DHT22;13365;52.208;5.488;2023-06-19T01:23:11;27.20;61.40
25440;DHT22;13365;52.208;5.488;2023-06-19T01:25:37;26.90;62.00
25440;DHT22;13365;52.208;5.488;2023-06-19T01:28:04;26.80;62.70
25440;DHT22;13365;52.208;5.488;2023-06-19T01:30:31;26.80;62.90
25440;DHT22;13365;52.208;5.488;2023-06-19T01:33:02;26.70;63.20
25440;DHT22;13365;52.208;5.488;2023-06-19T01:35:31;26.50;63.80
25440;DHT22;13365;52.208;5.488;2023-06-19T01:37:57;26.20;64.70
25440;DHT22;13365;52.208;5.488;2023-06-19T01:40:25;26.20;65.40
25440;DHT22;13365;52.208;5.488;2023-06-19T01:42:53;26.10;65.70
25440;DHT22;13365;52.208;5.488;2023-06-19T01:45:20;26.00;66.00
25440;DHT22;13365;52.208;5.488;2023-06-19T01:47:45;26.00;66.50
25440;DHT22;13365;52.208;5.488;2023-06-19T01:50:11;26.00;66.90
25440;DHT22;13365;52.208;5.488;2023-06-19T01:52:38;25.90;67.10
25440;DHT22;13365;52.208;5.488;2023-06-19T01:55:04;25.70;68.00
25440;DHT22;13365;52.208;5.488;2023-06-19T01:57:31;25.50;69.00
25440;DHT22;13365;52.208;5.488;2023-06-19T01:59:56;25.40;69.60
25440;DHT22;13365;52.208;5.488;2023-06-19T02:02:22;25.40;69.80
25440;DHT22;13365;52.208;5.488;2023-06-19T02:04:48;25.30;70.00
25440;DHT22;13365;52.208;5.488;2023-06-19T02:07:13;25.20;70.70
25440;DHT22;13365;52.208;5.488;2023-06-19T02:09:39;25.30;71.00
25440;DHT22;13365;52.208;5.488;2023-06-19T02:12:05;25.40;70.90
25440;DHT22;13365;52.208;5.488;2023-06-19T02:14:30;25.40;70.70
25440;DHT22;13365;52.208;5.488;2023-06-19T02:16:56;25.40;70.70
25440;DHT22;13365;52.208;5.488;2023-06-19T02:19:21;25.50;70.60
25440;DHT22;13365;52.208;5.488;2023-06-19T02:21:47;25.50;71.70
25440;DHT22;13365;52.208;5.488;2023-06-19T02:24:13;25.30;71.00
25440;DHT22;13365;52.208;5.488;2023-06-19T02:26:38;25.40;71.30
25440;DHT22;13365;52.208;5.488;2023-06-19T02:29:04;25.50;71.60
25440;DHT22;13365;52.208;5.488;2023-06-19T02:31:29;25.40;71.70
25440;DHT22;13365;52.208;5.488;2023-06-19T02:33:55;25.30;72.80
25440;DHT22;13365;52.208;5.488;2023-06-19T02:36:20;25.10;73.60
25440;DHT22;13365;52.208;5.488;2023-06-19T02:38:49;25.10;74.10
25440;DHT22;13365;52.208;5.488;2023-06-19T02:41:15;25.20;74.30
25440;DHT22;13365;52.208;5.488;2023-06-19T02:43:42;25.00;74.60
25440;DHT22;13365;52.208;5.488;2023-06-19T02:46:08;24.90;75.40
25440;DHT22;13365;52.208;5.488;2023-06-19T02:48:34;24.90;75.70
25440;DHT22;13365;52.208;5.488;2023-06-19T02:50:59;25.10;75.20
25440;DHT22;13365;52.208;5.488;2023-06-19T02:53:25;25.30;74.80
25440;DHT22;13365;52.208;5.488;2023-06-19T02:55:50;25.30;74.50
25440;DHT22;13365;52.208;5.488;2023-06-19T02:58:16;25.20;74.90
25440;DHT22;13365;52.208;5.488;2023-06-19T03:00:41;25.20;75.20
25440;DHT22;13365;52.208;5.488;2023-06-19T03:03:07;25.20;75.30
25440;DHT22;13365;52.208;5.488;2023-06-19T03:05:32;25.10;75.50
25440;DHT22;13365;52.208;5.488;2023-06-19T03:07:58;25.20;75.60
25440;DHT22;13365;52.208;5.488;2023-06-19T03:10:23;25.10;76.00
25440;DHT22;13365;52.208;5.488;2023-06-19T03:12:49;25.10;76.00
25440;DHT22;13365;52.208;5.488;2023-06-19T03:15:14;25.10;76.20
25440;DHT22;13365;52.208;5.488;2023-06-19T03:17:40;25.30;76.20
25440;DHT22;13365;52.208;5.488;2023-06-19T03:20:06;25.20;76.20
25440;DHT22;13365;52.208;5.488;2023-06-19T03:22:31;25.20;76.30
25440;DHT22;13365;52.208;5.488;2023-06-19T03:24:57;25.20;76.20
25440;DHT22;13365;52.208;5.488;2023-06-19T03:27:23;25.20;76.70
25440;DHT22;13365;52.208;5.488;2023-06-19T03:29:50;25.10;77.20
25440;DHT22;13365;52.208;5.488;2023-06-19T03:32:15;25.10;77.50
25440;DHT22;13365;52.208;5.488;2023-06-19T03:34:41;25.10;77.00
25440;DHT22;13365;52.208;5.488;2023-06-19T03:37:07;25.10;77.40
25440;DHT22;13365;52.208;5.488;2023-06-19T03:39:32;25.20;77.60
25440;DHT22;13365;52.208;5.488;2023-06-19T03:41:58;25.30;77.30
25440;DHT22;13365;52.208;5.488;2023-06-19T03:44:23;25.30;77.10
25440;DHT22;13365;52.208;5.488;2023-06-19T03:46:49;25.30;77.10
25440;DHT22;13365;52.208;5.488;2023-06-19T03:49:15;25.30;77.10
25440;DHT22;13365;52.208;5.488;2023-06-19T03:51:41;25.30;77.40
25440;DHT22;13365;52.208;5.488;2023-06-19T03:54:07;25.10;78.20
25440;DHT22;13365;52.208;5.488;2023-06-19T03:56:32;25.10;78.70
25440;DHT22;13365;52.208;5.488;2023-06-19T03:58:58;24.90;79.40
25440;DHT22;13365;52.208;5.488;2023-06-19T04:01:23;24.70;80.70
25440;DHT22;13365;52.208;5.488;2023-06-19T04:03:49;24.70;81.40
25440;DHT22;13365;52.208;5.488;2023-06-19T04:06:14;24.80;81.00
25440;DHT22;13365;52.208;5.488;2023-06-19T04:08:40;24.70;81.30
25440;DHT22;13365;52.208;5.488;2023-06-19T04:11:05;24.80;81.50
25440;DHT22;13365;52.208;5.488;2023-06-19T04:13:31;24.70;81.90
25440;DHT22;13365;52.208;5.488;2023-06-19T04:15:57;24.80;82.50
25440;DHT22;13365;52.208;5.488;2023-06-19T04:18:22;24.70;83.00
25440;DHT22;13365;52.208;5.488;2023-06-19T04:20:48;24.50;84.10
25440;DHT22;13365;52.208;5.488;2023-06-19T04:23:13;24.50;85.10
25440;DHT22;13365;52.208;5.488;2023-06-19T04:25:39;24.70;84.90
25440;DHT22;13365;52.208;5.488;2023-06-19T04:28:04;24.90;84.40
25440;DHT22;13365;52.208;5.488;2023-06-19T04:30:30;24.80;84.30
25440;DHT22;13365;52.208;5.488;2023-06-19T04:32:57;24.60;85.20
25440;DHT22;13365;52.208;5.488;2023-06-19T04:35:23;24.50;86.00
25440;DHT22;13365;52.208;5.488;2023-06-19T04:37:49;24.50;86.30
25440;DHT22;13365;52.208;5.488;2023-06-19T04:40:15;24.50;86.40
25440;DHT22;13365;52.208;5.488;2023-06-19T04:42:40;24.70;86.30
25440;DHT22;13365;52.208;5.488;2023-06-19T04:45:06;24.60;86.60
25440;DHT22;13365;52.208;5.488;2023-06-19T04:47:33;24.50;86.90
25440;DHT22;13365;52.208;5.488;2023-06-19T04:49:59;24.50;86.70
25440;DHT22;13365;52.208;5.488;2023-06-19T04:52:25;24.40;87.10
25440;DHT22;13365;52.208;5.488;2023-06-19T04:54:50;24.60;87.70
25440;DHT22;13365;52.208;5.488;2023-06-19T04:57:16;24.70;87.10
25440;DHT22;13365;52.208;5.488;2023-06-19T04:59:43;24.60;86.80
25440;DHT22;13365;52.208;5.488;2023-06-19T05:02:10;24.40;87.50
25440;DHT22;13365;52.208;5.488;2023-06-19T05:04:35;24.60;87.80
25440;DHT22;13365;52.208;5.488;2023-06-19T05:07:01;24.60;87.00
25440;DHT22;13365;52.208;5.488;2023-06-19T05:09:28;24.50;87.10
25440;DHT22;13365;52.208;5.488;2023-06-19T05:11:54;24.90;86.40
25440;DHT22;13365;52.208;5.488;2023-06-19T05:14:19;24.90;85.80
25440;DHT22;13365;52.208;5.488;2023-06-19T05:16:45;24.90;84.90
25440;DHT22;13365;52.208;5.488;2023-06-19T05:19:10;24.90;85.20
25440;DHT22;13365;52.208;5.488;2023-06-19T05:21:36;25.10;84.80
25440;DHT22;13365;52.208;5.488;2023-06-19T05:24:02;25.10;84.10
25440;DHT22;13365;52.208;5.488;2023-06-19T05:26:27;24.70;84.00
25440;DHT22;13365;52.208;5.488;2023-06-19T05:28:53;24.60;84.70
25440;DHT22;13365;52.208;5.488;2023-06-19T05:31:18;24.60;84.60
25440;DHT22;13365;52.208;5.488;2023-06-19T05:33:44;24.80;84.10
25440;DHT22;13365;52.208;5.488;2023-06-19T05:36:10;25.00;83.60
25440;DHT22;13365;52.208;5.488;2023-06-19T05:38:36;24.90;83.20
25440;DHT22;13365;52.208;5.488;2023-06-19T05:41:02;24.80;82.90
25440;DHT22;13365;52.208;5.488;2023-06-19T05:43:28;25.00;83.10
25440;DHT22;13365;52.208;5.488;2023-06-19T05:45:54;25.10;82.30
25440;DHT22;13365;52.208;5.488;2023-06-19T05:48:21;25.30;81.70
25440;DHT22;13365;52.208;5.488;2023-06-19T05:50:47;25.30;81.70
25440;DHT22;13365;52.208;5.488;2023-06-19T05:53:12;25.50;80.70
25440;DHT22;13365;52.208;5.488;2023-06-19T05:55:38;25.50;80.60
25440;DHT22;13365;52.208;5.488;2023-06-19T05:58:03;25.50;80.10
25440;DHT22;13365;52.208;5.488;2023-06-19T06:00:30;25.60;80.00
25440;DHT22;13365;52.208;5.488;2023-06-19T06:02:59;25.70;79.80
25440;DHT22;13365;52.208;5.488;2023-06-19T06:05:27;25.70;79.30
25440;DHT22;13365;52.208;5.488;2023-06-19T06:07:54;25.80;79.10
25440;DHT22;13365;52.208;5.488;2023-06-19T06:10:21;25.50;79.10
25440;DHT22;13365;52.208;5.488;2023-06-19T06:12:48;25.40;79.50
25440;DHT22;13365;52.208;5.488;2023-06-19T06:15:14;25.10;79.70
25440;DHT22;13365;52.208;5.488;2023-06-19T06:17:39;25.00;80.50
25440;DHT22;13365;52.208;5.488;2023-06-19T06:20:05;24.90;80.30
25440;DHT22;13365;52.208;5.488;2023-06-19T06:22:37;24.60;81.40
25440;DHT22;13365;52.208;5.488;2023-06-19T06:25:02;24.40;82.60
25440;DHT22;13365;52.208;5.488;2023-06-19T06:27:28;24.50;82.40
25440;DHT22;13365;52.208;5.488;2023-06-19T06:29:53;24.40;81.70
25440;DHT22;13365;52.208;5.488;2023-06-19T06:32:19;24.00;82.20
25440;DHT22;13365;52.208;5.488;2023-06-19T06:34:44;23.90;83.00
25440;DHT22;13365;52.208;5.488;2023-06-19T06:37:10;24.00;83.00
25440;DHT22;13365;52.208;5.488;2023-06-19T06:39:35;24.10;82.90
25440;DHT22;13365;52.208;5.488;2023-06-19T06:42:01;24.30;81.70
25440;DHT22;13365;52.208;5.488;2023-06-19T06:44:27;24.60;81.30
25440;DHT22;13365;52.208;5.488;2023-06-19T06:46:53;24.70;78.30
25440;DHT22;13365;52.208;5.488;2023-06-19T06:49:18;24.90;78.30
25440;DHT22;13365;52.208;5.488;2023-06-19T06:51:44;25.10;77.90
25440;DHT22;13365;52.208;5.488;2023-06-19T06:54:09;25.40;77.10
25440;DHT22;13365;52.208;5.488;2023-06-19T06:56:35;25.50;76.70
25440;DHT22;13365;52.208;5.488;2023-06-19T06:59:01;25.30;76.00
25440;DHT22;13365;52.208;5.488;2023-06-19T07:01:26;25.30;76.30
25440;DHT22;13365;52.208;5.488;2023-06-19T07:03:52;25.30;76.90
25440;DHT22;13365;52.208;5.488;2023-06-19T07:06:19;25.30;77.20
25440;DHT22;13365;52.208;5.488;2023-06-19T07:08:44;25.20;76.50
25440;DHT22;13365;52.208;5.488;2023-06-19T07:11:13;24.70;77.20
25440;DHT22;13365;52.208;5.488;2023-06-19T07:13:38;24.50;78.00
25440;DHT22;13365;52.208;5.488;2023-06-19T07:16:05;24.60;78.60
25440;DHT22;13365;52.208;5.488;2023-06-19T07:18:30;24.80;78.70
25440;DHT22;13365;52.208;5.488;2023-06-19T07:20:56;25.10;78.20
25440;DHT22;13365;52.208;5.488;2023-06-19T07:23:22;25.30;77.10
25440;DHT22;13365;52.208;5.488;2023-06-19T07:25:47;25.40;76.70
25440;DHT22;13365;52.208;5.488;2023-06-19T07:28:13;25.60;76.90
25440;DHT22;13365;52.208;5.488;2023-06-19T07:30:39;25.70;75.40
25440;DHT22;13365;52.208;5.488;2023-06-19T07:33:04;25.70;75.00
25440;DHT22;13365;52.208;5.488;2023-06-19T07:35:30;25.40;75.30
25440;DHT22;13365;52.208;5.488;2023-06-19T07:37:55;25.00;76.40
25440;DHT22;13365;52.208;5.488;2023-06-19T07:40:21;24.80;77.30
25440;DHT22;13365;52.208;5.488;2023-06-19T07:42:47;24.90;77.80
25440;DHT22;13365;52.208;5.488;2023-06-19T07:45:12;24.90;77.40
25440;DHT22;13365;52.208;5.488;2023-06-19T07:47:38;25.10;77.00
25440;DHT22;13365;52.208;5.488;2023-06-19T07:50:04;25.50;76.30
25440;DHT22;13365;52.208;5.488;2023-06-19T07:52:30;25.60;74.60
25440;DHT22;13365;52.208;5.488;2023-06-19T07:54:56;25.80;75.30
25440;DHT22;13365;52.208;5.488;2023-06-19T07:57:23;25.90;75.10
25440;DHT22;13365;52.208;5.488;2023-06-19T07:59:50;26.00;73.20
25440;DHT22;13365;52.208;5.488;2023-06-19T08:02:16;25.90;73.60
25440;DHT22;13365;52.208;5.488;2023-06-19T08:04:41;25.60;73.80
25440;DHT22;13365;52.208;5.488;2023-06-19T08:07:07;25.70;74.80
25440;DHT22;13365;52.208;5.488;2023-06-19T08:09:33;25.80;74.10
25440;DHT22;13365;52.208;5.488;2023-06-19T08:11:58;26.00;73.20
25440;DHT22;13365;52.208;5.488;2023-06-19T08:14:24;25.90;73.50
25440;DHT22;13365;52.208;5.488;2023-06-19T08:16:49;26.00;74.20
25440;DHT22;13365;52.208;5.488;2023-06-19T08:19:15;26.40;73.10
25440;DHT22;13365;52.208;5.488;2023-06-19T08:21:41;26.50;71.60
25440;DHT22;13365;52.208;5.488;2023-06-19T08:24:06;26.60;71.80
25440;DHT22;13365;52.208;5.488;2023-06-19T08:26:32;26.90;71.40
25440;DHT22;13365;52.208;5.488;2023-06-19T08:28:58;26.50;70.80
25440;DHT22;13365;52.208;5.488;2023-06-19T08:31:23;26.50;71.60
25440;DHT22;13365;52.208;5.488;2023-06-19T08:33:53;26.40;71.30
25440;DHT22;13365;52.208;5.488;2023-06-19T08:36:19;26.40;72.20
25440;DHT22;13365;52.208;5.488;2023-06-19T08:38:44;26.50;72.10
25440;DHT22;13365;52.208;5.488;2023-06-19T08:41:12;26.50;72.00
25440;DHT22;13365;52.208;5.488;2023-06-19T08:43:38;26.80;72.60
25440;DHT22;13365;52.208;5.488;2023-06-19T08:46:09;27.30;70.90
25440;DHT22;13365;52.208;5.488;2023-06-19T08:48:36;27.40;70.70
25440;DHT22;13365;52.208;5.488;2023-06-19T08:51:02;26.90;70.20
25440;DHT22;13365;52.208;5.488;2023-06-19T08:53:31;26.80;70.70
25440;DHT22;13365;52.208;5.488;2023-06-19T08:55:57;26.50;70.10
25440;DHT22;13365;52.208;5.488;2023-06-19T08:58:23;26.70;72.60
25440;DHT22;13365;52.208;5.488;2023-06-19T09:00:49;27.00;71.20
25440;DHT22;13365;52.208;5.488;2023-06-19T09:03:20;27.30;70.80
25440;DHT22;13365;52.208;5.488;2023-06-19T09:05:46;27.50;69.00
25440;DHT22;13365;52.208;5.488;2023-06-19T09:08:15;27.50;69.70
25440;DHT22;13365;52.208;5.488;2023-06-19T09:10:41;27.70;70.70
25440;DHT22;13365;52.208;5.488;2023-06-19T09:13:07;28.10;71.00
25440;DHT22;13365;52.208;5.488;2023-06-19T09:15:37;28.00;67.40
25440;DHT22;13365;52.208;5.488;2023-06-19T09:18:05;28.20;67.70
25440;DHT22;13365;52.208;5.488;2023-06-19T09:20:32;28.20;67.10
25440;DHT22;13365;52.208;5.488;2023-06-19T09:22:58;28.30;68.50
25440;DHT22;13365;52.208;5.488;2023-06-19T09:25:24;28.50;66.80
25440;DHT22;13365;52.208;5.488;2023-06-19T09:27:55;28.10;67.10
25440;DHT22;13365;52.208;5.488;2023-06-19T09:30:21;28.10;68.00
25440;DHT22;13365;52.208;5.488;2023-06-19T09:32:46;28.30;66.50
25440;DHT22;13365;52.208;5.488;2023-06-19T09:35:12;28.50;67.00
25440;DHT22;13365;52.208;5.488;2023-06-19T09:37:39;28.40;65.40
25440;DHT22;13365;52.208;5.488;2023-06-19T09:40:06;28.10;67.60
25440;DHT22;13365;52.208;5.488;2023-06-19T09:42:41;28.10;67.00
25440;DHT22;13365;52.208;5.488;2023-06-19T09:45:10;28.40;66.90
25440;DHT22;13365;52.208;5.488;2023-06-19T09:47:38;28.40;66.00
25440;DHT22;13365;52.208;5.488;2023-06-19T09:50:05;28.30;65.40
25440;DHT22;13365;52.208;5.488;2023-06-19T09:52:32;28.30;65.00
25440;DHT22;13365;52.208;5.488;2023-06-19T09:55:01;28.40;65.90
25440;DHT22;13365;52.208;5.488;2023-06-19T09:57:28;28.30;67.10
25440;DHT22;13365;52.208;5.488;2023-06-19T09:59:55;28.40;66.70
25440;DHT22;13365;52.208;5.488;2023-06-19T10:02:26;28.50;66.30
25440;DHT22;13365;52.208;5.488;2023-06-19T10:04:54;28.50;65.40
25440;DHT22;13365;52.208;5.488;2023-06-19T10:07:25;28.20;65.40
25440;DHT22;13365;52.208;5.488;2023-06-19T10:12:44;27.70;65.80
25440;DHT22;13365;52.208;5.488;2023-06-19T10:15:21;27.60;66.70
25440;DHT22;13365;52.208;5.488;2023-06-19T10:23:01;27.70;68.30
25440;DHT22;13365;52.208;5.488;2023-06-19T10:25:29;28.30;67.40
25440;DHT22;13365;52.208;5.488;2023-06-19T10:27:57;28.20;65.00
25440;DHT22;13365;52.208;5.488;2023-06-19T10:30:23;28.50;65.70
25440;DHT22;13365;52.208;5.488;2023-06-19T10:32:48;28.80;67.50
25440;DHT22;13365;52.208;5.488;2023-06-19T10:35:15;29.10;65.00
25440;DHT22;13365;52.208;5.488;2023-06-19T10:37:41;29.20;62.80
25440;DHT22;13365;52.208;5.488;2023-06-19T10:40:08;29.40;61.20
25440;DHT22;13365;52.208;5.488;2023-06-19T10:42:38;28.80;61.50
25440;DHT22;13365;52.208;5.488;2023-06-19T10:45:09;28.50;62.70
25440;DHT22;13365;52.208;5.488;2023-06-19T10:47:35;28.20;64.00
25440;DHT22;13365;52.208;5.488;2023-06-19T10:50:01;28.40;64.80
25440;DHT22;13365;52.208;5.488;2023-06-19T10:52:30;28.80;64.00
25440;DHT22;13365;52.208;5.488;2023-06-19T10:54:57;28.70;63.10
25440;DHT22;13365;52.208;5.488;2023-06-19T10:57:32;29.00;64.40
25440;DHT22;13365;52.208;5.488;2023-06-19T10:59:58;29.60;62.90
25440;DHT22;13365;52.208;5.488;2023-06-19T11:02:25;30.00;60.80
25440;DHT22;13365;52.208;5.488;2023-06-19T11:04:54;30.10;60.60
25440;DHT22;13365;52.208;5.488;2023-06-19T11:07:21;30.30;60.40
25440;DHT22;13365;52.208;5.488;2023-06-19T11:09:48;30.50;58.80
25440;DHT22;13365;52.208;5.488;2023-06-19T11:12:19;30.80;59.40
25440;DHT22;13365;52.208;5.488;2023-06-19T11:14:45;31.00;58.40
25440;DHT22;13365;52.208;5.488;2023-06-19T11:17:10;30.70;57.90
25440;DHT22;13365;52.208;5.488;2023-06-19T11:19:36;31.00;58.00
25440;DHT22;13365;52.208;5.488;2023-06-19T11:22:03;30.70;56.60
25440;DHT22;13365;52.208;5.488;2023-06-19T11:24:29;31.00;57.20
25440;DHT22;13365;52.208;5.488;2023-06-19T11:26:56;31.20;58.10
25440;DHT22;13365;52.208;5.488;2023-06-19T11:29:26;31.40;57.10
25440;DHT22;13365;52.208;5.488;2023-06-19T11:32:03;30.70;56.60
25440;DHT22;13365;52.208;5.488;2023-06-19T11:34:33;30.30;58.10
25440;DHT22;13365;52.208;5.488;2023-06-19T11:36:59;30.00;58.40
25440;DHT22;13365;52.208;5.488;2023-06-19T11:39:25;30.20;58.40
25440;DHT22;13365;52.208;5.488;2023-06-19T11:41:50;30.00;60.00
25440;DHT22;13365;52.208;5.488;2023-06-19T11:44:16;30.20;59.40
25440;DHT22;13365;52.208;5.488;2023-06-19T11:46:42;30.40;57.60
25440;DHT22;13365;52.208;5.488;2023-06-19T11:49:18;30.80;57.90
25440;DHT22;13365;52.208;5.488;2023-06-19T11:51:44;30.70;57.50
25440;DHT22;13365;52.208;5.488;2023-06-19T11:54:11;30.90;57.60
25440;DHT22;13365;52.208;5.488;2023-06-19T11:56:38;30.90;57.50
25440;DHT22;13365;52.208;5.488;2023-06-19T11:59:04;31.30;57.10
25440;DHT22;13365;52.208;5.488;2023-06-19T12:01:34;31.40;57.10
25440;DHT22;13365;52.208;5.488;2023-06-19T12:04:00;31.60;58.10
25440;DHT22;13365;52.208;5.488;2023-06-19T12:06:27;31.80;57.60
25440;DHT22;13365;52.208;5.488;2023-06-19T12:08:53;32.40;55.20
25440;DHT22;13365;52.208;5.488;2023-06-19T12:11:18;32.60;54.20
25440;DHT22;13365;52.208;5.488;2023-06-19T12:13:44;32.90;53.10
25440;DHT22;13365;52.208;5.488;2023-06-19T12:16:10;33.00;53.30
25440;DHT22;13365;52.208;5.488;2023-06-19T12:18:36;32.00;52.80
25440;DHT22;13365;52.208;5.488;2023-06-19T12:21:02;31.30;54.10
25440;DHT22;13365;52.208;5.488;2023-06-19T12:23:27;31.40;55.30
25440;DHT22;13365;52.208;5.488;2023-06-19T12:25:53;31.40;56.00
25440;DHT22;13365;52.208;5.488;2023-06-19T12:28:18;31.40;55.20
25440;DHT22;13365;52.208;5.488;2023-06-19T12:30:45;31.60;54.60
25440;DHT22;13365;52.208;5.488;2023-06-19T12:33:11;31.20;53.80
25440;DHT22;13365;52.208;5.488;2023-06-19T12:35:40;31.10;55.20
25440;DHT22;13365;52.208;5.488;2023-06-19T12:38:07;31.00;54.40
25440;DHT22;13365;52.208;5.488;2023-06-19T12:40:32;30.70;55.20
25440;DHT22;13365;52.208;5.488;2023-06-19T12:42:58;30.80;55.40
25440;DHT22;13365;52.208;5.488;2023-06-19T12:45:24;30.80;56.40
25440;DHT22;13365;52.208;5.488;2023-06-19T12:47:49;30.80;55.00
25440;DHT22;13365;52.208;5.488;2023-06-19T12:50:15;31.20;55.00
25440;DHT22;13365;52.208;5.488;2023-06-19T12:52:40;31.80;54.70
25440;DHT22;13365;52.208;5.488;2023-06-19T12:55:06;32.10;53.40
25440;DHT22;13365;52.208;5.488;2023-06-19T12:57:32;31.70;53.80
25440;DHT22;13365;52.208;5.488;2023-06-19T12:59:58;31.30;54.50
25440;DHT22;13365;52.208;5.488;2023-06-19T13:02:23;31.50;55.50
25440;DHT22;13365;52.208;5.488;2023-06-19T13:04:49;31.00;54.80
25440;DHT22;13365;52.208;5.488;2023-06-19T13:07:14;30.80;54.40
25440;DHT22;13365;52.208;5.488;2023-06-19T13:09:40;30.80;54.90
25440;DHT22;13365;52.208;5.488;2023-06-19T13:12:06;30.60;55.40
25440;DHT22;13365;52.208;5.488;2023-06-19T13:14:32;30.20;56.10
25440;DHT22;13365;52.208;5.488;2023-06-19T13:16:57;30.10;57.30
25440;DHT22;13365;52.208;5.488;2023-06-19T13:19:24;29.90;57.40
25440;DHT22;13365;52.208;5.488;2023-06-19T13:21:50;30.10;56.10
25440;DHT22;13365;52.208;5.488;2023-06-19T13:24:16;30.20;54.70
25440;DHT22;13365;52.208;5.488;2023-06-19T13:26:43;30.20;56.20
25440;DHT22;13365;52.208;5.488;2023-06-19T13:29:08;30.40;56.20
25440;DHT22;13365;52.208;5.488;2023-06-19T13:31:34;30.10;56.20
25440;DHT22;13365;52.208;5.488;2023-06-19T13:33:59;29.90;56.30
25440;DHT22;13365;52.208;5.488;2023-06-19T13:36:25;30.40;56.70
25440;DHT22;13365;52.208;5.488;2023-06-19T13:38:52;30.20;56.70
25440;DHT22;13365;52.208;5.488;2023-06-19T13:41:18;29.90;55.90
25440;DHT22;13365;52.208;5.488;2023-06-19T13:43:43;29.80;56.50
25440;DHT22;13365;52.208;5.488;2023-06-19T13:46:11;29.70;56.50
25440;DHT22;13365;52.208;5.488;2023-06-19T13:48:37;29.80;56.10
25440;DHT22;13365;52.208;5.488;2023-06-19T13:51:03;29.70;56.50
25440;DHT22;13365;52.208;5.488;2023-06-19T13:53:28;29.90;57.50
25440;DHT22;13365;52.208;5.488;2023-06-19T13:55:55;29.50;56.00
25440;DHT22;13365;52.208;5.488;2023-06-19T13:58:20;29.40;56.60
25440;DHT22;13365;52.208;5.488;2023-06-19T14:00:46;29.50;56.90
25440;DHT22;13365;52.208;5.488;2023-06-19T14:03:13;29.30;57.90
25440;DHT22;13365;52.208;5.488;2023-06-19T14:05:38;29.20;57.40
25440;DHT22;13365;52.208;5.488;2023-06-19T14:08:04;29.60;57.80
25440;DHT22;13365;52.208;5.488;2023-06-19T14:10:30;29.80;56.30
25440;DHT22;13365;52.208;5.488;2023-06-19T14:12:56;29.50;57.80
25440;DHT22;13365;52.208;5.488;2023-06-19T14:15:21;29.70;57.20
25440;DHT22;13365;52.208;5.488;2023-06-19T14:17:47;29.50;56.70
25440;DHT22;13365;52.208;5.488;2023-06-19T14:20:12;29.50;57.20
25440;DHT22;13365;52.208;5.488;2023-06-19T14:22:38;29.70;56.70
25440;DHT22;13365;52.208;5.488;2023-06-19T14:25:04;30.20;55.70
25440;DHT22;13365;52.208;5.488;2023-06-19T14:27:29;30.20;55.40
25440;DHT22;13365;52.208;5.488;2023-06-19T14:29:55;29.90;56.30
25440;DHT22;13365;52.208;5.488;2023-06-19T14:32:22;29.70;56.30
25440;DHT22;13365;52.208;5.488;2023-06-19T14:34:48;29.60;56.20
25440;DHT22;13365;52.208;5.488;2023-06-19T14:37:14;29.90;57.40
25440;DHT22;13365;52.208;5.488;2023-06-19T14:39:40;30.10;57.00
25440;DHT22;13365;52.208;5.488;2023-06-19T14:42:05;30.00;56.40
25440;DHT22;13365;52.208;5.488;2023-06-19T14:44:31;30.30;56.50
25440;DHT22;13365;52.208;5.488;2023-06-19T14:46:58;30.60;55.80
25440;DHT22;13365;52.208;5.488;2023-06-19T14:49:23;30.80;55.50
25440;DHT22;13365;52.208;5.488;2023-06-19T14:51:49;30.70;55.60
25440;DHT22;13365;52.208;5.488;2023-06-19T14:54:14;31.30;55.00
25440;DHT22;13365;52.208;5.488;2023-06-19T14:56:45;31.20;54.70
25440;DHT22;13365;52.208;5.488;2023-06-19T14:59:13;31.60;53.30
25440;DHT22;13365;52.208;5.488;2023-06-19T15:01:39;31.70;53.40
25440;DHT22;13365;52.208;5.488;2023-06-19T15:04:05;31.50;52.60
25440;DHT22;13365;52.208;5.488;2023-06-19T15:06:32;31.50;53.70
25440;DHT22;13365;52.208;5.488;2023-06-19T15:08:57;31.60;52.80
25440;DHT22;13365;52.208;5.488;2023-06-19T15:11:23;32.00;52.40
25440;DHT22;13365;52.208;5.488;2023-06-19T15:13:48;32.50;52.00
25440;DHT22;13365;52.208;5.488;2023-06-19T15:16:14;32.90;52.30
25440;DHT22;13365;52.208;5.488;2023-06-19T15:18:40;33.80;51.80
25440;DHT22;13365;52.208;5.488;2023-06-19T15:21:06;34.00;48.80
25440;DHT22;13365;52.208;5.488;2023-06-19T15:23:33;34.40;48.10
25440;DHT22;13365;52.208;5.488;2023-06-19T15:25:58;34.50;47.70
25440;DHT22;13365;52.208;5.488;2023-06-19T15:28:24;35.10;47.70
25440;DHT22;13365;52.208;5.488;2023-06-19T15:30:50;36.00;46.90
25440;DHT22;13365;52.208;5.488;2023-06-19T15:33:15;36.50;46.70